createdAt,value
2023-10-28T00:00:03.627Z,1.90
2023-10-28T00:00:39.000Z,1.53
2023-10-28T00:01:14.919Z,1.40
2023-10-28T00:01:51.481Z,1.50
2023-10-28T00:02:25.143Z,1.70
2023-10-28T00:02:58.621Z,1.70
2023-10-28T00:03:32.117Z,1.50
2023-10-28T00:04:06.220Z,1.97
2023-10-28T00:04:40.408Z,1.63
2023-10-28T00:05:13.791Z,1.63
2023-10-28T00:05:47.762Z,1.50
2023-10-28T00:06:21.033Z,1.37
2023-10-28T00:06:54.691Z,1.50
2023-10-28T00:07:27.950Z,1.50
2023-10-28T00:08:02.845Z,1.50
2023-10-28T00:08:37.541Z,1.40
2023-10-28T00:09:11.878Z,1.17
2023-10-28T00:09:45.468Z,1.33
2023-10-28T00:10:19.281Z,1.33
2023-10-28T00:10:52.971Z,1.07
2023-10-28T00:11:27.798Z,1.43
2023-10-28T00:12:01.603Z,1.80
2023-10-28T00:12:36.025Z,1.63
2023-10-28T00:13:10.244Z,1.60
2023-10-28T00:13:43.676Z,1.80
2023-10-28T00:14:20.754Z,1.67
2023-10-28T00:14:54.286Z,1.47
2023-10-28T00:15:29.288Z,1.40
2023-10-28T00:16:03.072Z,1.40
2023-10-28T00:16:37.836Z,1.50
2023-10-28T00:17:14.136Z,1.30
2023-10-28T00:17:48.814Z,1.30
2023-10-28T00:18:22.533Z,1.13
2023-10-28T00:18:56.097Z,1.30
2023-10-28T00:19:29.804Z,1.73
2023-10-28T00:20:06.482Z,1.27
2023-10-28T00:20:42.394Z,1.17
2023-10-28T00:21:19.064Z,1.50
2023-10-28T00:21:52.612Z,1.17
2023-10-28T00:22:26.260Z,1.13
2023-10-28T00:22:59.827Z,1.43
2023-10-28T00:23:33.342Z,1.37
2023-10-28T00:24:07.135Z,1.53
2023-10-28T00:24:42.850Z,1.83
2023-10-28T00:25:17.587Z,1.27
2023-10-28T00:25:52.031Z,1.53
2023-10-28T00:26:25.357Z,1.33
2023-10-28T00:26:59.530Z,1.53
2023-10-28T00:27:34.840Z,1.20
2023-10-28T00:28:08.325Z,1.30
2023-10-28T00:28:42.941Z,1.30
2023-10-28T00:29:16.506Z,1.30
2023-10-28T00:29:53.784Z,1.37
2023-10-28T00:30:31.038Z,1.63
2023-10-28T00:31:05.442Z,1.40
2023-10-28T00:31:42.502Z,1.53
2023-10-28T00:32:16.456Z,1.43
2023-10-28T00:32:51.578Z,1.27
2023-10-28T00:33:24.813Z,1.30
2023-10-28T00:33:58.434Z,1.33
2023-10-28T00:34:33.958Z,1.57
2023-10-28T00:35:09.928Z,1.83
2023-10-28T00:35:43.716Z,1.40
2023-10-28T00:36:20.610Z,1.33
2023-10-28T00:36:53.932Z,1.33
2023-10-28T00:37:27.651Z,1.30
2023-10-28T00:38:01.299Z,1.43
2023-10-28T00:38:35.547Z,1.67
2023-10-28T00:39:10.078Z,1.43
2023-10-28T00:39:44.908Z,1.47
2023-10-28T00:40:18.883Z,1.53
2023-10-28T00:40:52.351Z,1.60
2023-10-28T00:41:25.877Z,1.57
2023-10-28T00:42:02.509Z,1.67
2023-10-28T00:42:37.759Z,1.80
2023-10-28T00:43:12.168Z,1.60
2023-10-28T00:43:46.174Z,1.60
2023-10-28T00:44:19.816Z,1.13
2023-10-28T00:44:55.372Z,1.77
2023-10-28T00:45:29.499Z,1.87
2023-10-28T00:46:04.691Z,1.67
2023-10-28T00:46:39.779Z,1.50
2023-10-28T00:47:13.928Z,1.47
2023-10-28T00:47:54.974Z,1.57
2023-10-28T00:48:31.228Z,2.10
2023-10-28T00:49:06.836Z,2.03
2023-10-28T00:49:41.639Z,1.80
2023-10-28T00:50:18.137Z,1.77
2023-10-28T00:50:51.757Z,1.77
2023-10-28T00:51:25.292Z,1.77
2023-10-28T00:52:00.500Z,1.87
2023-10-28T00:52:34.880Z,1.73
2023-10-28T00:53:11.730Z,1.43
2023-10-28T00:53:45.666Z,1.50
2023-10-28T00:54:19.170Z,1.37
2023-10-28T00:54:54.401Z,1.43
2023-10-28T00:55:30.800Z,1.43
2023-10-28T00:56:05.270Z,1.20
2023-10-28T00:56:40.074Z,1.70
2023-10-28T00:57:13.715Z,1.70
2023-10-28T00:57:48.887Z,1.60
2023-10-28T00:58:24.003Z,1.50
2023-10-28T00:59:03.589Z,1.27
2023-10-28T00:59:37.235Z,1.47
2023-10-28T01:00:16.222Z,1.73
2023-10-28T01:02:05.746Z,1.60
2023-10-28T01:02:41.900Z,1.43
2023-10-28T01:03:19.562Z,1.50
2023-10-28T01:03:53.249Z,1.60
2023-10-28T01:04:27.209Z,1.37
2023-10-28T01:05:01.077Z,1.40
2023-10-28T01:05:35.582Z,1.63
2023-10-28T01:06:13.625Z,1.70
2023-10-28T01:06:47.609Z,1.87
2023-10-28T01:07:22.088Z,1.67
2023-10-28T01:07:55.694Z,1.67
2023-10-28T01:08:29.424Z,1.63
2023-10-28T01:09:03.155Z,1.60
2023-10-28T01:09:49.426Z,1.53
2023-10-28T01:10:30.280Z,1.40
2023-10-28T01:11:04.221Z,1.43
2023-10-28T01:11:40.827Z,1.10
2023-10-28T01:12:15.228Z,1.33
2023-10-28T01:12:49.498Z,1.63
2023-10-28T01:13:22.888Z,1.57
2023-10-28T01:13:56.260Z,1.33
2023-10-28T01:14:32.713Z,1.60
2023-10-28T01:15:07.792Z,1.67
2023-10-28T01:15:41.665Z,1.57
2023-10-28T01:16:15.412Z,1.63
2023-10-28T01:16:52.728Z,1.50
2023-10-28T01:17:31.002Z,1.47
2023-10-28T01:18:05.319Z,1.47
2023-10-28T01:18:41.896Z,1.87
2023-10-28T01:19:16.630Z,1.77
2023-10-28T01:19:50.201Z,1.67
2023-10-28T01:20:24.050Z,1.70
2023-10-28T01:20:57.353Z,1.67
2023-10-28T01:21:30.723Z,1.53
2023-10-28T01:22:07.826Z,1.40
2023-10-28T01:22:41.132Z,1.23
2023-10-28T01:23:15.420Z,1.60
2023-10-28T01:23:49.012Z,1.43
2023-10-28T01:24:22.642Z,1.70
2023-10-28T01:24:56.144Z,1.90
2023-10-28T01:25:32.596Z,1.93
2023-10-28T01:26:06.164Z,1.83
2023-10-28T01:26:40.975Z,1.73
2023-10-28T01:27:14.379Z,1.73
2023-10-28T01:27:48.193Z,1.67
2023-10-28T01:28:21.755Z,1.77
2023-10-28T01:28:57.226Z,1.83
2023-10-28T01:29:30.946Z,1.53
2023-10-28T01:30:06.240Z,1.77
2023-10-28T01:30:43.536Z,1.77
2023-10-28T01:31:19.140Z,1.63
2023-10-28T01:31:52.985Z,1.53
2023-10-28T01:32:26.299Z,1.87
2023-10-28T01:32:59.896Z,1.73
2023-10-28T01:33:33.528Z,1.70
2023-10-28T01:34:08.120Z,1.83
2023-10-28T01:34:51.713Z,2.07
2023-10-28T01:35:25.754Z,1.90
2023-10-28T01:35:59.337Z,1.97
2023-10-28T01:36:33.274Z,1.93
2023-10-28T01:37:06.840Z,2.10
2023-10-28T01:37:41.813Z,2.10
2023-10-28T01:38:15.220Z,1.83
2023-10-28T01:38:48.613Z,1.70
2023-10-28T01:39:22.176Z,1.87
2023-10-28T01:39:55.808Z,1.70
2023-10-28T01:40:29.332Z,1.67
2023-10-28T01:41:05.268Z,1.60
2023-10-28T01:41:39.228Z,1.83
2023-10-28T01:42:14.514Z,2.20
2023-10-28T01:42:48.587Z,1.70
2023-10-28T01:43:22.466Z,1.40
2023-10-28T01:43:56.035Z,1.93
2023-10-28T01:44:29.359Z,1.87
2023-10-28T01:45:02.990Z,1.50
2023-10-28T01:45:36.981Z,1.67
2023-10-28T01:46:10.657Z,1.77
2023-10-28T01:46:44.340Z,1.73
2023-10-28T01:47:18.156Z,2.03
2023-10-28T01:47:51.891Z,1.80
2023-10-28T01:48:25.432Z,1.70
2023-10-28T01:48:58.931Z,1.97
2023-10-28T01:49:32.431Z,1.93
2023-10-28T01:50:12.965Z,2.20
2023-10-28T01:50:46.920Z,1.63
2023-10-28T01:51:20.606Z,1.83
2023-10-28T01:51:54.335Z,1.90
2023-10-28T01:52:29.563Z,1.83
2023-10-28T01:53:04.168Z,2.03
2023-10-28T01:53:37.769Z,1.90
2023-10-28T01:54:12.432Z,1.97
2023-10-28T01:54:45.711Z,1.80
2023-10-28T01:55:19.486Z,1.90
2023-10-28T01:55:53.204Z,1.83
2023-10-28T01:56:29.457Z,1.97
2023-10-28T01:57:08.292Z,2.03
2023-10-28T01:57:42.064Z,1.77
2023-10-28T01:58:15.941Z,2.00
2023-10-28T01:58:49.578Z,1.43
2023-10-28T01:59:22.924Z,1.67
2023-10-28T01:59:56.663Z,2.00
2023-10-28T02:00:32.916Z,1.90
2023-10-28T02:01:06.660Z,1.83
2023-10-28T02:01:41.033Z,2.13
2023-10-28T02:02:14.610Z,2.00
2023-10-28T02:02:48.052Z,1.97
2023-10-28T02:03:24.080Z,2.33
2023-10-28T02:03:59.237Z,1.80
2023-10-28T02:04:34.519Z,1.63
2023-10-28T02:05:09.850Z,1.83
2023-10-28T02:05:44.542Z,1.93
2023-10-28T02:06:18.361Z,2.07
2023-10-28T02:06:51.821Z,2.43
2023-10-28T02:07:26.078Z,2.43
2023-10-28T02:08:02.641Z,1.87
2023-10-28T02:08:36.230Z,1.73
2023-10-28T02:09:11.988Z,1.80
2023-10-28T02:09:45.766Z,2.17
2023-10-28T02:10:24.027Z,2.00
2023-10-28T02:10:57.723Z,1.87
2023-10-28T02:11:33.587Z,2.23
2023-10-28T02:12:07.852Z,2.23
2023-10-28T02:12:41.580Z,2.13
2023-10-28T02:13:16.026Z,1.83
2023-10-28T02:13:49.992Z,1.53
2023-10-28T02:14:24.341Z,1.93
2023-10-28T02:14:57.653Z,1.77
2023-10-28T02:15:31.400Z,1.90
2023-10-28T02:16:05.578Z,2.20
2023-10-28T02:16:40.088Z,3.20
2023-10-28T02:17:14.282Z,2.73
2023-10-28T02:17:47.750Z,1.90
2023-10-28T02:18:24.061Z,1.87
2023-10-28T02:18:59.875Z,2.63
2023-10-28T02:19:33.960Z,2.40
2023-10-28T02:20:08.394Z,2.10
2023-10-28T02:20:42.323Z,2.27
2023-10-28T02:21:15.891Z,2.07
2023-10-28T02:22:02.802Z,2.10
2023-10-28T02:22:44.059Z,2.10
2023-10-28T02:23:17.601Z,2.10
2023-10-28T02:23:51.082Z,2.03
2023-10-28T02:24:24.322Z,2.07
2023-10-28T02:24:57.622Z,2.17
2023-10-28T02:25:30.891Z,2.27
2023-10-28T02:26:04.604Z,2.03
2023-10-28T02:26:37.965Z,8.23
2023-10-28T02:27:12.759Z,7.43
2023-10-28T02:27:46.199Z,4.93
2023-10-28T02:28:19.697Z,4.33
2023-10-28T02:28:53.326Z,3.47
2023-10-28T02:29:26.896Z,2.57
2023-10-28T02:30:00.507Z,2.17
2023-10-28T02:30:37.215Z,2.00
2023-10-28T02:31:11.136Z,2.60
2023-10-28T02:31:44.727Z,2.20
2023-10-28T02:32:18.756Z,2.53
2023-10-28T02:32:52.648Z,2.07
2023-10-28T02:33:26.067Z,2.60
2023-10-28T02:33:59.779Z,2.33
2023-10-28T02:34:33.526Z,2.13
2023-10-28T02:35:07.752Z,1.80
2023-10-28T02:35:41.187Z,2.20
2023-10-28T02:36:14.475Z,2.87
2023-10-28T02:36:48.581Z,2.40
2023-10-28T02:37:24.223Z,2.13
2023-10-28T02:37:57.921Z,2.33
2023-10-28T02:38:32.113Z,2.30
2023-10-28T02:39:07.345Z,2.40
2023-10-28T02:39:41.206Z,2.43
2023-10-28T02:40:15.022Z,2.13
2023-10-28T02:40:49.417Z,2.03
2023-10-28T02:41:23.065Z,1.90
2023-10-28T02:41:56.627Z,2.50
2023-10-28T02:42:30.290Z,2.73
2023-10-28T02:43:06.324Z,2.60
2023-10-28T02:43:40.942Z,2.33
2023-10-28T02:44:14.815Z,2.30
2023-10-28T02:44:48.442Z,2.73
2023-10-28T02:45:22.268Z,3.27
2023-10-28T02:45:55.826Z,2.83
2023-10-28T02:46:29.308Z,2.43
2023-10-28T02:47:02.995Z,2.77
2023-10-28T02:47:36.443Z,2.97
2023-10-28T02:48:10.118Z,3.90
2023-10-28T02:48:43.666Z,10.10
2023-10-28T02:49:17.316Z,8.80
2023-10-28T02:49:51.117Z,5.93
2023-10-28T02:50:24.631Z,3.93
2023-10-28T02:51:07.548Z,2.70
2023-10-28T02:51:41.664Z,2.60
2023-10-28T02:52:18.128Z,2.57
2023-10-28T02:52:52.645Z,2.13
2023-10-28T02:53:26.136Z,2.00
2023-10-28T02:54:00.438Z,2.17
2023-10-28T02:54:37.720Z,2.10
2023-10-28T02:55:12.516Z,2.03
2023-10-28T02:55:48.804Z,2.20
2023-10-28T02:56:22.561Z,2.17
2023-10-28T02:56:56.092Z,2.03
2023-10-28T02:57:29.402Z,2.13
2023-10-28T02:58:03.239Z,2.10
2023-10-28T02:58:37.063Z,2.37
2023-10-28T02:59:11.858Z,1.90
2023-10-28T02:59:46.332Z,2.10
2023-10-28T03:00:20.167Z,2.20
2023-10-28T03:00:58.361Z,2.20
2023-10-28T03:01:37.874Z,2.37
2023-10-28T03:02:12.406Z,1.93
2023-10-28T03:02:46.088Z,2.27
2023-10-28T03:03:19.864Z,2.20
2023-10-28T03:03:53.646Z,1.93
2023-10-28T03:04:26.962Z,2.13
2023-10-28T03:05:00.389Z,2.37
2023-10-28T03:05:33.932Z,2.47
2023-10-28T03:06:07.617Z,1.90
2023-10-28T03:06:41.164Z,2.10
2023-10-28T03:07:14.814Z,2.13
2023-10-28T03:07:48.398Z,2.23
2023-10-28T03:08:22.517Z,2.30
2023-10-28T03:08:56.271Z,2.37
2023-10-28T03:09:31.775Z,2.47
2023-10-28T03:10:06.045Z,2.43
2023-10-28T03:10:40.236Z,2.30
2023-10-28T03:11:13.862Z,2.37
2023-10-28T03:11:47.430Z,2.30
2023-10-28T03:12:21.010Z,2.30
2023-10-28T03:12:57.229Z,2.43
2023-10-28T03:13:30.870Z,2.00
2023-10-28T03:14:05.499Z,2.60
2023-10-28T03:14:43.633Z,2.33
2023-10-28T03:15:17.083Z,2.23
2023-10-28T03:15:50.734Z,2.50
2023-10-28T03:16:24.178Z,2.33
2023-10-28T03:16:57.718Z,2.23
2023-10-28T03:17:31.241Z,2.27
2023-10-28T03:18:04.967Z,2.13
2023-10-28T03:18:39.453Z,2.10
2023-10-28T03:19:15.938Z,2.17
2023-10-28T03:19:49.598Z,2.13
2023-10-28T03:20:23.523Z,2.20
2023-10-28T03:20:58.139Z,2.50
2023-10-28T03:21:31.751Z,2.23
2023-10-28T03:22:05.815Z,2.17
2023-10-28T03:22:43.350Z,2.00
2023-10-28T03:23:19.524Z,2.30
2023-10-28T03:23:53.160Z,2.27
2023-10-28T03:24:30.166Z,1.90
2023-10-28T03:25:04.574Z,2.20
2023-10-28T03:25:39.344Z,2.13
2023-10-28T03:26:13.937Z,2.20
2023-10-28T03:26:47.187Z,2.47
2023-10-28T03:27:20.470Z,2.13
2023-10-28T03:27:54.207Z,2.37
2023-10-28T03:28:29.293Z,2.33
2023-10-28T03:29:02.884Z,2.50
2023-10-28T03:29:36.626Z,2.53
2023-10-28T03:30:11.371Z,2.43
2023-10-28T03:30:44.660Z,2.53
2023-10-28T03:31:18.245Z,2.50
2023-10-28T03:31:53.701Z,2.13
2023-10-28T03:32:30.501Z,2.40
2023-10-28T03:33:04.188Z,2.37
2023-10-28T03:33:39.711Z,2.20
2023-10-28T03:34:13.070Z,1.93
2023-10-28T03:34:47.183Z,2.50
2023-10-28T03:35:21.687Z,2.37
2023-10-28T03:35:58.515Z,2.53
2023-10-28T03:36:31.794Z,2.40
2023-10-28T03:37:07.075Z,2.57
2023-10-28T03:37:43.489Z,2.47
2023-10-28T03:38:17.153Z,2.57
2023-10-28T03:38:50.708Z,2.50
2023-10-28T03:39:24.386Z,2.77
2023-10-28T03:39:57.771Z,2.63
2023-10-28T03:40:31.422Z,2.63
2023-10-28T03:41:12.914Z,2.63
2023-10-28T03:41:46.421Z,2.53
2023-10-28T03:42:20.630Z,2.27
2023-10-28T03:42:56.256Z,1.80
2023-10-28T03:43:29.740Z,2.67
2023-10-28T03:44:03.795Z,2.70
2023-10-28T03:44:37.201Z,2.57
2023-10-28T03:45:12.267Z,2.60
2023-10-28T03:45:45.764Z,2.37
2023-10-28T03:46:22.407Z,2.33
2023-10-28T03:46:58.224Z,2.40
2023-10-28T03:47:34.708Z,2.57
2023-10-28T03:48:08.303Z,2.53
2023-10-28T03:48:41.868Z,2.60
2023-10-28T03:49:15.419Z,2.37
2023-10-28T03:49:48.980Z,2.47
2023-10-28T03:50:22.804Z,2.63
2023-10-28T03:51:07.092Z,2.27
2023-10-28T03:51:41.814Z,2.73
2023-10-28T03:52:15.691Z,2.37
2023-10-28T03:52:49.375Z,2.17
2023-10-28T03:53:22.931Z,2.60
2023-10-28T03:53:56.481Z,2.73
2023-10-28T03:54:30.694Z,2.57
2023-10-28T03:55:08.543Z,2.77
2023-10-28T03:55:42.298Z,2.90
2023-10-28T03:56:15.829Z,2.80
2023-10-28T03:56:49.374Z,2.87
2023-10-28T03:57:22.916Z,2.80
2023-10-28T03:57:56.998Z,3.47
2023-10-28T03:58:30.312Z,3.43
2023-10-28T03:59:04.198Z,3.40
2023-10-28T03:59:37.814Z,2.97
2023-10-28T04:00:12.758Z,3.67
2023-10-28T04:00:46.648Z,3.33
2023-10-28T04:01:20.252Z,3.27
2023-10-28T04:01:54.228Z,3.30
2023-10-28T04:02:30.149Z,3.50
2023-10-28T04:03:03.733Z,3.07
2023-10-28T04:03:37.397Z,3.57
2023-10-28T04:04:10.940Z,3.23
2023-10-28T04:04:44.606Z,3.53
2023-10-28T04:05:21.248Z,3.60
2023-10-28T04:05:55.460Z,3.90
2023-10-28T04:06:28.747Z,3.70
2023-10-28T04:07:04.739Z,4.27
2023-10-28T04:07:37.972Z,3.27
2023-10-28T04:08:12.269Z,3.77
2023-10-28T04:08:45.865Z,4.00
2023-10-28T04:09:19.959Z,4.57
2023-10-28T04:09:54.187Z,3.97
2023-10-28T04:10:28.878Z,4.43
2023-10-28T04:11:02.394Z,3.47
2023-10-28T04:11:35.892Z,4.60
2023-10-28T04:12:10.473Z,4.37
2023-10-28T04:12:46.950Z,4.70
2023-10-28T04:13:20.565Z,4.27
2023-10-28T04:13:54.194Z,4.27
2023-10-28T04:14:27.793Z,4.30
2023-10-28T04:15:01.372Z,4.30
2023-10-28T04:15:36.566Z,4.57
2023-10-28T04:16:10.310Z,4.13
2023-10-28T04:16:43.984Z,4.27
2023-10-28T04:17:20.549Z,4.53
2023-10-28T04:17:54.836Z,4.17
2023-10-28T04:18:30.458Z,4.50
2023-10-28T04:19:04.623Z,5.30
2023-10-28T04:19:39.876Z,5.00
2023-10-28T04:20:13.210Z,4.97
2023-10-28T04:20:47.040Z,4.73
2023-10-28T04:21:20.891Z,4.97
2023-10-28T04:21:55.576Z,4.83
2023-10-28T04:22:30.333Z,4.80
2023-10-28T04:23:04.392Z,4.73
2023-10-28T04:23:38.121Z,5.03
2023-10-28T04:24:11.922Z,4.87
2023-10-28T04:24:48.348Z,5.07
2023-10-28T04:25:21.932Z,5.47
2023-10-28T04:25:55.510Z,4.60
2023-10-28T04:26:29.147Z,4.37
2023-10-28T04:27:02.558Z,4.23
2023-10-28T04:27:36.479Z,4.47
2023-10-28T04:28:09.851Z,4.80
2023-10-28T04:28:43.408Z,4.80
2023-10-28T04:29:17.140Z,4.70
2023-10-28T04:29:51.832Z,4.90
2023-10-28T04:30:25.572Z,5.20
2023-10-28T04:31:01.032Z,4.83
2023-10-28T04:31:34.265Z,4.83
2023-10-28T04:32:08.527Z,4.30
2023-10-28T04:32:42.197Z,4.50
2023-10-28T04:33:16.875Z,4.40
2023-10-28T04:33:50.343Z,4.67
2023-10-28T04:34:23.887Z,4.40
2023-10-28T04:35:01.082Z,4.67
2023-10-28T04:35:44.383Z,4.33
2023-10-28T04:36:17.698Z,4.77
2023-10-28T04:36:51.476Z,4.83
2023-10-28T04:37:26.185Z,4.73
2023-10-28T04:37:59.733Z,5.20
2023-10-28T04:38:33.087Z,4.70
2023-10-28T04:39:06.638Z,4.00
2023-10-28T04:39:42.209Z,4.40
2023-10-28T04:40:17.155Z,4.27
2023-10-28T04:40:51.562Z,4.77
2023-10-28T04:41:25.152Z,5.20
2023-10-28T04:41:58.920Z,4.57
2023-10-28T04:42:33.273Z,4.23
2023-10-28T04:43:07.146Z,4.60
2023-10-28T04:43:42.708Z,5.00
2023-10-28T04:44:16.338Z,4.83
2023-10-28T04:44:53.520Z,5.20
2023-10-28T04:45:27.093Z,5.23
2023-10-28T04:46:06.656Z,5.60
2023-10-28T04:46:41.742Z,5.57
2023-10-28T04:47:20.284Z,5.60
2023-10-28T04:47:53.925Z,5.93
2023-10-28T04:48:30.471Z,5.90
2023-10-28T04:49:03.778Z,6.70
2023-10-28T04:49:38.401Z,6.33
2023-10-28T04:50:13.172Z,6.47
2023-10-28T04:50:46.866Z,6.53
2023-10-28T04:51:20.561Z,6.67
2023-10-28T04:51:55.573Z,6.27
2023-10-28T04:52:29.268Z,6.43
2023-10-28T04:53:02.592Z,6.23
2023-10-28T04:53:36.158Z,7.27
2023-10-28T04:54:09.769Z,6.90
2023-10-28T04:54:43.351Z,6.83
2023-10-28T04:55:17.720Z,6.90
2023-10-28T04:55:56.343Z,7.00
2023-10-28T04:56:31.547Z,7.33
2023-10-28T04:57:05.271Z,7.40
2023-10-28T04:57:39.543Z,7.57
2023-10-28T04:58:13.440Z,6.93
2023-10-28T04:58:47.037Z,7.17
2023-10-28T04:59:22.861Z,7.07
2023-10-28T04:59:56.394Z,6.87
2023-10-28T05:00:31.475Z,7.33
2023-10-28T05:01:06.085Z,7.40
2023-10-28T05:01:40.534Z,7.27
2023-10-28T05:02:14.345Z,7.37
2023-10-28T05:02:50.831Z,7.63
2023-10-28T05:03:25.476Z,7.27
2023-10-28T05:03:59.349Z,7.77
2023-10-28T05:04:32.729Z,6.83
2023-10-28T05:05:07.031Z,7.23
2023-10-28T05:05:41.257Z,7.27
2023-10-28T05:06:14.944Z,7.37
2023-10-28T05:06:48.430Z,8.00
2023-10-28T05:07:21.998Z,8.33
2023-10-28T05:07:55.634Z,7.80
2023-10-28T05:08:29.801Z,7.30
2023-10-28T05:09:04.250Z,7.60
2023-10-28T05:09:38.029Z,8.13
2023-10-28T05:10:12.208Z,8.87
2023-10-28T05:10:48.355Z,8.20
2023-10-28T05:11:21.945Z,8.13
2023-10-28T05:12:00.057Z,8.07
2023-10-28T05:12:36.079Z,8.37
2023-10-28T05:13:11.639Z,7.90
2023-10-28T05:13:44.917Z,8.93
2023-10-28T05:14:18.542Z,8.30
2023-10-28T05:14:52.176Z,8.63
2023-10-28T05:15:25.711Z,8.63
2023-10-28T05:16:00.044Z,8.93
2023-10-28T05:16:34.308Z,9.47
2023-10-28T05:17:08.906Z,8.93
2023-10-28T05:17:42.843Z,8.70
2023-10-28T05:18:16.774Z,9.20
2023-10-28T05:18:50.797Z,9.73
2023-10-28T05:19:24.251Z,10.00
2023-10-28T05:19:57.773Z,9.93
2023-10-28T05:20:35.061Z,9.77
2023-10-28T05:21:08.659Z,9.93
2023-10-28T05:21:42.488Z,10.07
2023-10-28T05:22:18.436Z,10.27
2023-10-28T05:22:52.186Z,10.60
2023-10-28T05:23:26.007Z,10.80
2023-10-28T05:24:00.045Z,10.90
2023-10-28T05:24:34.587Z,10.80
2023-10-28T05:25:12.909Z,11.73
2023-10-28T05:25:47.290Z,11.20
2023-10-28T05:26:20.708Z,11.77
2023-10-28T05:26:56.425Z,11.93
2023-10-28T05:27:29.863Z,11.67
2023-10-28T05:28:03.612Z,12.23
2023-10-28T05:28:37.087Z,11.73
2023-10-28T05:29:11.065Z,11.73
2023-10-28T05:29:44.659Z,11.83
2023-10-28T05:30:18.526Z,11.60
2023-10-28T05:30:52.092Z,13.33
2023-10-28T05:31:28.994Z,11.93
2023-10-28T05:32:02.744Z,11.30
2023-10-28T05:32:41.319Z,11.40
2023-10-28T05:33:15.219Z,10.97
2023-10-28T05:33:48.882Z,11.37
2023-10-28T05:34:24.578Z,12.87
2023-10-28T05:35:00.409Z,11.77
2023-10-28T05:35:33.699Z,11.57
2023-10-28T05:36:07.989Z,11.63
2023-10-28T05:36:41.654Z,12.20
2023-10-28T05:37:15.253Z,11.70
2023-10-28T05:37:49.157Z,12.37
2023-10-28T05:38:22.641Z,11.53
2023-10-28T05:38:56.359Z,11.90
2023-10-28T05:39:29.885Z,11.80
2023-10-28T05:40:04.165Z,12.90
2023-10-28T05:40:37.743Z,11.50
2023-10-28T05:41:11.645Z,11.60
2023-10-28T05:41:45.386Z,11.13
2023-10-28T05:42:19.135Z,11.30
2023-10-28T05:42:52.412Z,11.90
2023-10-28T05:43:26.508Z,11.93
2023-10-28T05:44:01.174Z,11.33
2023-10-28T05:44:36.455Z,11.97
2023-10-28T05:45:11.683Z,11.87
2023-10-28T05:45:45.544Z,11.40
2023-10-28T05:46:22.727Z,12.93
2023-10-28T05:47:00.536Z,12.03
2023-10-28T05:47:34.165Z,11.73
2023-10-28T05:48:10.474Z,12.47
2023-10-28T05:48:44.429Z,12.40
2023-10-28T05:49:18.234Z,12.83
2023-10-28T05:49:51.455Z,11.50
2023-10-28T05:50:25.445Z,12.37
2023-10-28T05:50:59.121Z,11.43
2023-10-28T05:51:37.114Z,12.10
2023-10-28T05:52:10.969Z,12.17
2023-10-28T05:52:44.682Z,12.43
2023-10-28T05:53:19.067Z,12.03
2023-10-28T05:53:52.624Z,12.30
2023-10-28T05:54:26.894Z,11.20
2023-10-28T05:55:00.466Z,12.37
2023-10-28T05:55:33.696Z,11.97
2023-10-28T05:56:07.648Z,11.57
2023-10-28T05:56:43.971Z,11.57
2023-10-28T05:57:17.674Z,11.27
2023-10-28T05:57:51.145Z,11.43
2023-10-28T05:58:25.745Z,11.00
2023-10-28T05:58:59.932Z,12.33
2023-10-28T05:59:36.438Z,11.77
2023-10-28T06:00:11.797Z,11.03
2023-10-28T06:00:45.585Z,10.27
2023-10-28T06:01:19.141Z,10.20
2023-10-28T06:01:52.830Z,10.03
2023-10-28T06:02:26.632Z,11.00
2023-10-28T06:03:00.221Z,10.17
2023-10-28T06:03:33.550Z,10.93
2023-10-28T06:04:07.068Z,10.77
2023-10-28T06:04:43.318Z,9.97
2023-10-28T06:05:16.801Z,10.53
2023-10-28T06:05:53.547Z,12.00
2023-10-28T06:06:27.330Z,11.10
2023-10-28T06:07:00.967Z,11.50
2023-10-28T06:07:36.023Z,11.87
2023-10-28T06:08:09.604Z,11.50
2023-10-28T06:08:43.689Z,11.07
2023-10-28T06:09:22.137Z,10.83
2023-10-28T06:09:56.188Z,11.23
2023-10-28T06:10:29.570Z,11.83
2023-10-28T06:11:03.155Z,11.17
2023-10-28T06:11:36.488Z,10.80
2023-10-28T06:12:10.047Z,11.10
2023-10-28T06:12:43.725Z,11.77
2023-10-28T06:13:17.343Z,11.47
2023-10-28T06:13:52.066Z,12.37
2023-10-28T06:14:25.773Z,11.67
2023-10-28T06:14:59.474Z,11.33
2023-10-28T06:15:38.243Z,11.90
2023-10-28T06:16:11.963Z,12.37
2023-10-28T06:16:47.472Z,11.90
2023-10-28T06:17:24.078Z,11.83
2023-10-28T06:17:58.445Z,11.60
2023-10-28T06:18:32.096Z,11.57
2023-10-28T06:19:08.433Z,12.17
2023-10-28T06:19:42.258Z,11.83
2023-10-28T06:20:16.108Z,11.97
2023-10-28T06:20:50.052Z,11.43
2023-10-28T06:21:24.278Z,10.87
2023-10-28T06:21:59.040Z,11.53
2023-10-28T06:22:33.816Z,11.50
2023-10-28T06:23:07.709Z,10.63
2023-10-28T06:23:42.223Z,10.83
2023-10-28T06:24:15.712Z,11.10
2023-10-28T06:24:50.561Z,10.83
2023-10-28T06:25:24.207Z,10.90
2023-10-28T06:25:58.060Z,11.10
2023-10-28T06:26:31.613Z,10.67
2023-10-28T06:27:09.793Z,11.60
2023-10-28T06:27:45.164Z,11.27
2023-10-28T06:28:19.421Z,11.27
2023-10-28T06:28:53.033Z,11.20
2023-10-28T06:29:28.435Z,10.67
2023-10-28T06:30:02.417Z,11.67
2023-10-28T06:30:36.017Z,11.60
2023-10-28T06:31:09.729Z,10.87
2023-10-28T06:31:45.192Z,11.33
2023-10-28T06:32:18.974Z,12.30
2023-10-28T06:32:52.726Z,11.73
2023-10-28T06:33:26.038Z,12.40
2023-10-28T06:34:01.968Z,11.70
2023-10-28T06:34:35.372Z,11.13
2023-10-28T06:35:09.605Z,10.53
2023-10-28T06:35:45.212Z,10.57
2023-10-28T06:36:20.139Z,10.77
2023-10-28T06:36:57.299Z,10.83
2023-10-28T06:37:30.876Z,11.60
2023-10-28T06:38:04.404Z,12.63
2023-10-28T06:38:38.125Z,14.80
2023-10-28T06:39:12.407Z,13.90
2023-10-28T06:39:49.307Z,13.40
2023-10-28T06:40:25.836Z,11.77
2023-10-28T06:41:00.116Z,11.33
2023-10-28T06:41:35.336Z,12.97
2023-10-28T06:42:09.263Z,14.63
2023-10-28T06:42:43.199Z,12.80
2023-10-28T06:43:16.879Z,12.97
2023-10-28T06:43:50.808Z,12.50
2023-10-28T06:44:24.500Z,11.30
2023-10-28T06:45:00.278Z,12.33
2023-10-28T06:45:35.208Z,15.93
2023-10-28T06:46:09.242Z,15.27
2023-10-28T06:46:42.786Z,13.20
2023-10-28T06:47:16.346Z,12.47
2023-10-28T06:47:51.749Z,12.33
2023-10-28T06:48:26.143Z,13.33
2023-10-28T06:49:01.031Z,14.33
2023-10-28T06:49:34.563Z,12.93
2023-10-28T06:50:08.846Z,11.13
2023-10-28T06:50:42.675Z,10.33
2023-10-28T06:51:16.338Z,10.93
2023-10-28T06:51:51.427Z,10.23
2023-10-28T06:52:26.267Z,9.97
2023-10-28T06:53:01.139Z,10.23
2023-10-28T06:53:34.736Z,10.03
2023-10-28T06:54:08.123Z,9.90
2023-10-28T06:54:41.872Z,9.80
2023-10-28T06:55:16.494Z,8.47
2023-10-28T06:55:51.180Z,8.47
2023-10-28T06:56:26.596Z,9.63
2023-10-28T06:57:00.231Z,9.60
2023-10-28T06:57:33.598Z,8.80
2023-10-28T06:58:07.093Z,9.00
2023-10-28T06:58:42.798Z,8.10
2023-10-28T06:59:16.979Z,8.33
2023-10-28T06:59:51.005Z,8.30
2023-10-28T07:00:30.404Z,8.53
2023-10-28T07:01:05.522Z,8.13
2023-10-28T07:01:40.113Z,9.00
2023-10-28T07:02:14.283Z,9.47
2023-10-28T07:02:47.996Z,9.63
2023-10-28T07:03:21.738Z,9.67
2023-10-28T07:03:55.145Z,8.77
2023-10-28T07:04:30.577Z,8.73
2023-10-28T07:05:05.076Z,8.93
2023-10-28T07:05:42.649Z,8.87
2023-10-28T07:06:16.784Z,9.73
2023-10-28T07:06:53.347Z,11.37
2023-10-28T07:07:26.696Z,10.20
2023-10-28T07:08:00.351Z,9.53
2023-10-28T07:08:33.717Z,10.47
2023-10-28T07:09:07.208Z,10.33
2023-10-28T07:09:44.298Z,9.33
2023-10-28T07:10:17.694Z,9.70
2023-10-28T07:10:51.278Z,9.87
2023-10-28T07:11:25.237Z,9.00
2023-10-28T07:11:58.683Z,9.33
2023-10-28T07:12:32.204Z,9.37
2023-10-28T07:13:05.509Z,11.83
2023-10-28T07:13:41.047Z,9.80
2023-10-28T07:14:14.808Z,8.37
2023-10-28T07:14:48.602Z,9.23
2023-10-28T07:15:23.051Z,9.43
2023-10-28T07:16:03.738Z,10.07
2023-10-28T07:16:37.540Z,9.70
2023-10-28T07:17:12.662Z,9.07
2023-10-28T07:17:46.322Z,8.67
2023-10-28T07:18:20.104Z,8.90
2023-10-28T07:18:53.965Z,9.47
2023-10-28T07:19:27.238Z,9.40
2023-10-28T07:20:00.759Z,9.13
2023-10-28T07:20:34.326Z,9.70
2023-10-28T07:21:07.946Z,9.53
2023-10-28T07:21:44.220Z,9.00
2023-10-28T07:22:17.989Z,8.77
2023-10-28T07:22:51.251Z,8.90
2023-10-28T07:23:27.993Z,8.97
2023-10-28T07:24:02.670Z,8.67
2023-10-28T07:24:37.064Z,8.83
2023-10-28T07:25:11.334Z,8.37
2023-10-28T07:25:45.410Z,9.00
2023-10-28T07:26:19.074Z,9.10
2023-10-28T07:26:52.628Z,9.10
2023-10-28T07:27:27.731Z,9.83
2023-10-28T07:28:01.204Z,10.00
2023-10-28T07:28:35.165Z,9.20
2023-10-28T07:29:09.443Z,8.40
2023-10-28T07:29:43.092Z,9.20
2023-10-28T07:30:16.786Z,9.17
2023-10-28T07:30:57.060Z,9.07
2023-10-28T07:31:30.616Z,8.97
2023-10-28T07:32:04.563Z,9.60
2023-10-28T07:32:38.210Z,9.03
2023-10-28T07:33:11.845Z,9.57
2023-10-28T07:33:45.550Z,9.30
2023-10-28T07:34:19.825Z,9.50
2023-10-28T07:34:53.221Z,9.00
2023-10-28T07:35:27.040Z,8.53
2023-10-28T07:36:03.753Z,9.30
2023-10-28T07:36:37.372Z,8.80
2023-10-28T07:37:10.993Z,9.23